sensor_id;sensor_type;location;lat;lon;timestamp;temperature;humidity
52709;DHT22;38606;52.986;6.980;2023-10-31T00:02:15;11.80;99.90
52709;DHT22;38606;52.986;6.980;2023-10-31T00:04:41;11.90;99.90
52709;DHT22;38606;52.986;6.980;2023-10-31T00:07:06;11.70;99.90
52709;DHT22;38606;52.986;6.980;2023-10-31T00:09:32;11.60;99.90
52709;DHT22;38606;52.986;6.980;2023-10-31T00:11:59;11.70;99.90
52709;DHT22;38606;52.986;6.980;2023-10-31T00:14:24;11.70;99.90
52709;DHT22;38606;52.986;6.980;2023-10-31T00:16:50;11.80;99.90
52709;DHT22;38606;52.986;6.980;2023-10-31T00:19:16;11.70;99.90
52709;DHT22;38606;52.986;6.980;2023-10-31T00:21:42;11.80;99.90
52709;DHT22;38606;52.986;6.980;2023-10-31T00:24:07;11.70;99.90
52709;DHT22;38606;52.986;6.980;2023-10-31T00:26:33;11.60;99.90
52709;DHT22;38606;52.986;6.980;2023-10-31T00:28:59;11.60;99.90
52709;DHT22;38606;52.986;6.980;2023-10-31T00:31:25;11.50;99.90
52709;DHT22;38606;52.986;6.980;2023-10-31T00:33:50;11.70;99.90
52709;DHT22;38606;52.986;6.980;2023-10-31T00:36:16;11.50;99.90
52709;DHT22;38606;52.986;6.980;2023-10-31T00:38:42;11.70;99.90
52709;DHT22;38606;52.986;6.980;2023-10-31T00:41:07;11.70;99.90
52709;DHT22;38606;52.986;6.980;2023-10-31T00:43:33;11.50;99.90
52709;DHT22;38606;52.986;6.980;2023-10-31T00:45:59;11.80;99.90
52709;DHT22;38606;52.986;6.980;2023-10-31T00:48:25;11.80;99.90
52709;DHT22;38606;52.986;6.980;2023-10-31T00:50:50;11.60;99.90
52709;DHT22;38606;52.986;6.980;2023-10-31T00:53:16;11.50;99.90
52709;DHT22;38606;52.986;6.980;2023-10-31T00:55:42;11.40;99.90
52709;DHT22;38606;52.986;6.980;2023-10-31T00:58:09;11.50;99.90
52709;DHT22;38606;52.986;6.980;2023-10-31T01:00:35;11.70;99.90
52709;DHT22;38606;52.986;6.980;2023-10-31T01:03:03;11.50;99.90
52709;DHT22;38606;52.986;6.980;2023-10-31T01:05:28;11.80;99.90
52709;DHT22;38606;52.986;6.980;2023-10-31T01:07:55;11.70;99.90
52709;DHT22;38606;52.986;6.980;2023-10-31T01:10:21;11.60;99.90
52709;DHT22;38606;52.986;6.980;2023-10-31T01:12:47;11.70;99.90
52709;DHT22;38606;52.986;6.980;2023-10-31T01:15:13;11.50;99.90
52709;DHT22;38606;52.986;6.980;2023-10-31T01:17:38;11.50;99.90
52709;DHT22;38606;52.986;6.980;2023-10-31T01:20:05;11.70;99.90
52709;DHT22;38606;52.986;6.980;2023-10-31T01:22:31;11.40;99.90
52709;DHT22;38606;52.986;6.980;2023-10-31T01:24:57;11.60;99.90
52709;DHT22;38606;52.986;6.980;2023-10-31T01:27:23;11.70;99.90
52709;DHT22;38606;52.986;6.980;2023-10-31T01:29:48;11.60;99.90
52709;DHT22;38606;52.986;6.980;2023-10-31T01:32:14;11.70;99.90
52709;DHT22;38606;52.986;6.980;2023-10-31T01:34:40;11.50;99.90
52709;DHT22;38606;52.986;6.980;2023-10-31T01:37:06;11.50;99.90
52709;DHT22;38606;52.986;6.980;2023-10-31T01:39:32;11.70;99.90
52709;DHT22;38606;52.986;6.980;2023-10-31T01:41:57;11.80;99.90
52709;DHT22;38606;52.986;6.980;2023-10-31T01:44:23;11.60;99.90
52709;DHT22;38606;52.986;6.980;2023-10-31T01:46:49;11.50;99.90
52709;DHT22;38606;52.986;6.980;2023-10-31T01:49:14;11.60;99.90
52709;DHT22;38606;52.986;6.980;2023-10-31T01:51:41;11.40;99.90
52709;DHT22;38606;52.986;6.980;2023-10-31T01:54:08;11.50;99.90
52709;DHT22;38606;52.986;6.980;2023-10-31T01:56:34;11.60;99.90
52709;DHT22;38606;52.986;6.980;2023-10-31T01:59:00;11.50;99.90
52709;DHT22;38606;52.986;6.980;2023-10-31T02:01:26;11.40;99.90
52709;DHT22;38606;52.986;6.980;2023-10-31T02:03:53;11.30;99.90
52709;DHT22;38606;52.986;6.980;2023-10-31T02:06:19;11.10;99.90
52709;DHT22;38606;52.986;6.980;2023-10-31T02:08:47;11.20;99.90
52709;DHT22;38606;52.986;6.980;2023-10-31T02:11:13;11.20;99.90
52709;DHT22;38606;52.986;6.980;2023-10-31T02:13:39;11.10;99.90
52709;DHT22;38606;52.986;6.980;2023-10-31T02:16:05;11.10;99.90
52709;DHT22;38606;52.986;6.980;2023-10-31T02:18:32;10.90;99.90
52709;DHT22;38606;52.986;6.980;2023-10-31T02:20:58;10.90;99.90
52709;DHT22;38606;52.986;6.980;2023-10-31T02:23:24;10.60;99.90
52709;DHT22;38606;52.986;6.980;2023-10-31T02:25:50;10.80;99.90
52709;DHT22;38606;52.986;6.980;2023-10-31T02:28:15;10.70;99.90
52709;DHT22;38606;52.986;6.980;2023-10-31T02:30:41;10.80;99.90
52709;DHT22;38606;52.986;6.980;2023-10-31T02:33:07;10.90;99.90
52709;DHT22;38606;52.986;6.980;2023-10-31T02:35:32;10.70;99.90
52709;DHT22;38606;52.986;6.980;2023-10-31T02:37:58;10.70;99.90
52709;DHT22;38606;52.986;6.980;2023-10-31T02:40:24;10.50;99.90
52709;DHT22;38606;52.986;6.980;2023-10-31T02:42:50;10.70;99.90
52709;DHT22;38606;52.986;6.980;2023-10-31T02:45:15;10.80;99.90
52709;DHT22;38606;52.986;6.980;2023-10-31T02:47:41;10.60;99.90
52709;DHT22;38606;52.986;6.980;2023-10-31T02:50:07;10.50;99.90
52709;DHT22;38606;52.986;6.980;2023-10-31T02:52:33;10.40;99.90
52709;DHT22;38606;52.986;6.980;2023-10-31T02:54:59;10.50;99.90
52709;DHT22;38606;52.986;6.980;2023-10-31T02:57:25;10.40;99.90
52709;DHT22;38606;52.986;6.980;2023-10-31T02:59:50;10.40;99.90
52709;DHT22;38606;52.986;6.980;2023-10-31T03:02:16;10.40;99.90
52709;DHT22;38606;52.986;6.980;2023-10-31T03:04:42;10.50;99.90
52709;DHT22;38606;52.986;6.980;2023-10-31T03:07:07;10.50;99.90
52709;DHT22;38606;52.986;6.980;2023-10-31T03:09:33;10.40;99.90
52709;DHT22;38606;52.986;6.980;2023-10-31T03:11:59;10.40;99.90
52709;DHT22;38606;52.986;6.980;2023-10-31T03:14:25;10.20;99.90
52709;DHT22;38606;52.986;6.980;2023-10-31T03:16:50;10.40;99.90
52709;DHT22;38606;52.986;6.980;2023-10-31T03:19:16;10.40;99.90
52709;DHT22;38606;52.986;6.980;2023-10-31T03:21:42;10.50;99.90
52709;DHT22;38606;52.986;6.980;2023-10-31T03:24:08;10.30;99.90
52709;DHT22;38606;52.986;6.980;2023-10-31T03:26:33;10.40;99.90
52709;DHT22;38606;52.986;6.980;2023-10-31T03:28:59;10.30;99.90
52709;DHT22;38606;52.986;6.980;2023-10-31T03:31:25;10.40;99.90
52709;DHT22;38606;52.986;6.980;2023-10-31T03:33:51;10.70;99.90
52709;DHT22;38606;52.986;6.980;2023-10-31T03:36:17;10.30;99.90
52709;DHT22;38606;52.986;6.980;2023-10-31T03:38:43;10.40;99.90
52709;DHT22;38606;52.986;6.980;2023-10-31T03:41:09;10.30;99.90
52709;DHT22;38606;52.986;6.980;2023-10-31T03:43:34;10.40;99.90
52709;DHT22;38606;52.986;6.980;2023-10-31T03:46:00;10.30;99.90
52709;DHT22;38606;52.986;6.980;2023-10-31T03:48:26;10.40;99.90
52709;DHT22;38606;52.986;6.980;2023-10-31T03:50:52;10.50;99.90
52709;DHT22;38606;52.986;6.980;2023-10-31T03:53:18;10.50;99.90
52709;DHT22;38606;52.986;6.980;2023-10-31T03:55:44;10.40;99.90
52709;DHT22;38606;52.986;6.980;2023-10-31T03:58:10;10.10;99.90
52709;DHT22;38606;52.986;6.980;2023-10-31T04:00:36;10.50;99.90
52709;DHT22;38606;52.986;6.980;2023-10-31T04:03:02;10.20;99.90
52709;DHT22;38606;52.986;6.980;2023-10-31T04:05:27;10.40;99.90
52709;DHT22;38606;52.986;6.980;2023-10-31T04:07:53;10.30;99.90
52709;DHT22;38606;52.986;6.980;2023-10-31T04:10:19;10.30;99.90
52709;DHT22;38606;52.986;6.980;2023-10-31T04:12:45;10.20;99.90
52709;DHT22;38606;52.986;6.980;2023-10-31T04:15:11;10.40;99.90
52709;DHT22;38606;52.986;6.980;2023-10-31T04:17:37;10.10;99.90
52709;DHT22;38606;52.986;6.980;2023-10-31T04:20:04;10.10;99.90
52709;DHT22;38606;52.986;6.980;2023-10-31T04:22:30;10.20;99.90
52709;DHT22;38606;52.986;6.980;2023-10-31T04:24:56;10.30;99.90
52709;DHT22;38606;52.986;6.980;2023-10-31T04:27:22;10.40;99.90
52709;DHT22;38606;52.986;6.980;2023-10-31T04:29:47;10.40;99.90
52709;DHT22;38606;52.986;6.980;2023-10-31T04:32:13;10.40;99.90
52709;DHT22;38606;52.986;6.980;2023-10-31T04:34:39;10.50;99.90
52709;DHT22;38606;52.986;6.980;2023-10-31T04:37:05;10.30;99.90
52709;DHT22;38606;52.986;6.980;2023-10-31T04:39:31;10.40;99.90
52709;DHT22;38606;52.986;6.980;2023-10-31T04:41:57;10.50;99.90
52709;DHT22;38606;52.986;6.980;2023-10-31T04:44:22;10.30;99.90
52709;DHT22;38606;52.986;6.980;2023-10-31T04:46:48;10.30;99.90
52709;DHT22;38606;52.986;6.980;2023-10-31T04:49:14;10.20;99.90
52709;DHT22;38606;52.986;6.980;2023-10-31T04:51:41;10.50;99.90
52709;DHT22;38606;52.986;6.980;2023-10-31T04:54:07;10.10;99.90
52709;DHT22;38606;52.986;6.980;2023-10-31T04:56:33;10.20;99.90
52709;DHT22;38606;52.986;6.980;2023-10-31T04:58:59;10.30;99.90
52709;DHT22;38606;52.986;6.980;2023-10-31T05:01:25;10.50;99.90
52709;DHT22;38606;52.986;6.980;2023-10-31T05:03:50;10.30;99.90
52709;DHT22;38606;52.986;6.980;2023-10-31T05:06:20;10.20;99.90
52709;DHT22;38606;52.986;6.980;2023-10-31T05:08:46;10.20;99.90
52709;DHT22;38606;52.986;6.980;2023-10-31T05:11:12;10.50;99.90
52709;DHT22;38606;52.986;6.980;2023-10-31T05:13:39;10.40;99.90
52709;DHT22;38606;52.986;6.980;2023-10-31T05:16:05;10.40;99.90
52709;DHT22;38606;52.986;6.980;2023-10-31T05:18:31;10.40;99.90
52709;DHT22;38606;52.986;6.980;2023-10-31T05:20:57;10.40;99.90
52709;DHT22;38606;52.986;6.980;2023-10-31T05:23:22;8.90;99.90
52709;DHT22;38606;52.986;6.980;2023-10-31T05:25:48;10.30;99.90
52709;DHT22;38606;52.986;6.980;2023-10-31T05:28:14;10.40;99.90
52709;DHT22;38606;52.986;6.980;2023-10-31T05:30:40;10.20;99.90
52709;DHT22;38606;52.986;6.980;2023-10-31T05:33:05;10.20;99.90
52709;DHT22;38606;52.986;6.980;2023-10-31T05:35:31;10.50;99.90
52709;DHT22;38606;52.986;6.980;2023-10-31T05:37:57;10.50;99.90
52709;DHT22;38606;52.986;6.980;2023-10-31T05:40:22;10.30;99.90
52709;DHT22;38606;52.986;6.980;2023-10-31T05:42:50;10.50;99.90
52709;DHT22;38606;52.986;6.980;2023-10-31T05:45:16;10.20;99.90
52709;DHT22;38606;52.986;6.980;2023-10-31T05:47:42;10.30;99.90
52709;DHT22;38606;52.986;6.980;2023-10-31T05:50:08;10.40;99.90
52709;DHT22;38606;52.986;6.980;2023-10-31T05:52:34;10.40;99.90
52709;DHT22;38606;52.986;6.980;2023-10-31T05:55:00;10.40;99.90
52709;DHT22;38606;52.986;6.980;2023-10-31T05:57:25;10.60;99.90
52709;DHT22;38606;52.986;6.980;2023-10-31T05:59:51;10.40;99.90
52709;DHT22;38606;52.986;6.980;2023-10-31T06:02:17;10.40;99.90
52709;DHT22;38606;52.986;6.980;2023-10-31T06:04:42;10.50;99.90
52709;DHT22;38606;52.986;6.980;2023-10-31T06:07:08;10.20;99.90
52709;DHT22;38606;52.986;6.980;2023-10-31T06:09:35;10.50;99.90
52709;DHT22;38606;52.986;6.980;2023-10-31T06:12:01;10.50;99.90
52709;DHT22;38606;52.986;6.980;2023-10-31T06:14:27;10.20;99.90
52709;DHT22;38606;52.986;6.980;2023-10-31T06:16:53;10.50;99.90
52709;DHT22;38606;52.986;6.980;2023-10-31T06:19:20;10.20;99.90
52709;DHT22;38606;52.986;6.980;2023-10-31T06:21:46;10.30;99.90
52709;DHT22;38606;52.986;6.980;2023-10-31T06:24:12;10.30;99.90
52709;DHT22;38606;52.986;6.980;2023-10-31T06:26:38;10.20;99.90
52709;DHT22;38606;52.986;6.980;2023-10-31T06:29:05;10.40;99.90
52709;DHT22;38606;52.986;6.980;2023-10-31T06:31:30;10.40;99.90
52709;DHT22;38606;52.986;6.980;2023-10-31T06:33:56;10.50;99.90
52709;DHT22;38606;52.986;6.980;2023-10-31T06:36:22;10.20;99.90
52709;DHT22;38606;52.986;6.980;2023-10-31T06:38:47;10.40;99.90
52709;DHT22;38606;52.986;6.980;2023-10-31T06:41:13;10.20;99.90
52709;DHT22;38606;52.986;6.980;2023-10-31T06:43:39;10.30;99.90
52709;DHT22;38606;52.986;6.980;2023-10-31T06:46:05;10.30;99.90
52709;DHT22;38606;52.986;6.980;2023-10-31T06:48:31;10.40;99.90
52709;DHT22;38606;52.986;6.980;2023-10-31T06:50:57;10.10;99.90
52709;DHT22;38606;52.986;6.980;2023-10-31T06:53:22;10.50;99.90
52709;DHT22;38606;52.986;6.980;2023-10-31T06:55:48;10.20;99.90
52709;DHT22;38606;52.986;6.980;2023-10-31T06:58:14;10.10;99.90
52709;DHT22;38606;52.986;6.980;2023-10-31T07:00:40;10.30;99.90
52709;DHT22;38606;52.986;6.980;2023-10-31T07:03:05;10.30;99.90
52709;DHT22;38606;52.986;6.980;2023-10-31T07:05:38;10.40;99.90
52709;DHT22;38606;52.986;6.980;2023-10-31T07:08:04;10.10;99.90
52709;DHT22;38606;52.986;6.980;2023-10-31T07:10:30;10.40;99.90
52709;DHT22;38606;52.986;6.980;2023-10-31T07:12:56;10.40;99.90
52709;DHT22;38606;52.986;6.980;2023-10-31T07:15:27;10.40;99.90
52709;DHT22;38606;52.986;6.980;2023-10-31T07:17:53;10.30;99.90
52709;DHT22;38606;52.986;6.980;2023-10-31T07:20:19;10.20;99.90
52709;DHT22;38606;52.986;6.980;2023-10-31T07:22:44;10.60;99.90
52709;DHT22;38606;52.986;6.980;2023-10-31T07:25:10;10.50;99.90
52709;DHT22;38606;52.986;6.980;2023-10-31T07:27:36;10.30;99.90
52709;DHT22;38606;52.986;6.980;2023-10-31T07:30:03;10.20;99.90
52709;DHT22;38606;52.986;6.980;2023-10-31T07:32:29;10.40;99.90
52709;DHT22;38606;52.986;6.980;2023-10-31T07:34:55;10.40;99.90
52709;DHT22;38606;52.986;6.980;2023-10-31T07:37:21;10.60;99.90
52709;DHT22;38606;52.986;6.980;2023-10-31T07:39:46;10.30;99.90
52709;DHT22;38606;52.986;6.980;2023-10-31T07:42:12;10.50;99.90
52709;DHT22;38606;52.986;6.980;2023-10-31T07:44:38;10.40;99.90
52709;DHT22;38606;52.986;6.980;2023-10-31T07:47:04;10.60;99.90
52709;DHT22;38606;52.986;6.980;2023-10-31T07:49:30;10.70;99.90
52709;DHT22;38606;52.986;6.980;2023-10-31T07:51:56;10.70;99.90
52709;DHT22;38606;52.986;6.980;2023-10-31T07:54:22;10.70;99.90
52709;DHT22;38606;52.986;6.980;2023-10-31T07:56:47;10.60;99.90
52709;DHT22;38606;52.986;6.980;2023-10-31T07:59:13;10.70;99.90
52709;DHT22;38606;52.986;6.980;2023-10-31T08:01:39;10.70;99.90
52709;DHT22;38606;52.986;6.980;2023-10-31T08:04:04;10.60;99.90
52709;DHT22;38606;52.986;6.980;2023-10-31T08:06:30;10.70;99.90
52709;DHT22;38606;52.986;6.980;2023-10-31T08:08:56;11.10;99.90
52709;DHT22;38606;52.986;6.980;2023-10-31T08:11:22;10.80;99.90
52709;DHT22;38606;52.986;6.980;2023-10-31T08:13:47;10.80;99.90
52709;DHT22;38606;52.986;6.980;2023-10-31T08:16:17;10.80;99.90
52709;DHT22;38606;52.986;6.980;2023-10-31T08:18:44;11.20;99.90
52709;DHT22;38606;52.986;6.980;2023-10-31T08:21:11;10.90;99.90
52709;DHT22;38606;52.986;6.980;2023-10-31T08:23:37;11.10;99.90
52709;DHT22;38606;52.986;6.980;2023-10-31T08:26:03;11.00;99.90
52709;DHT22;38606;52.986;6.980;2023-10-31T08:28:29;11.10;99.90
52709;DHT22;38606;52.986;6.980;2023-10-31T08:30:59;11.10;99.90
52709;DHT22;38606;52.986;6.980;2023-10-31T08:33:25;10.90;99.90
52709;DHT22;38606;52.986;6.980;2023-10-31T08:35:51;11.20;99.90
52709;DHT22;38606;52.986;6.980;2023-10-31T08:38:17;11.10;99.90
52709;DHT22;38606;52.986;6.980;2023-10-31T08:40:42;11.30;99.90
52709;DHT22;38606;52.986;6.980;2023-10-31T08:43:08;11.30;99.90
52709;DHT22;38606;52.986;6.980;2023-10-31T08:45:34;11.20;99.90
52709;DHT22;38606;52.986;6.980;2023-10-31T08:48:00;11.10;99.90
52709;DHT22;38606;52.986;6.980;2023-10-31T08:50:26;11.30;99.90
52709;DHT22;38606;52.986;6.980;2023-10-31T08:52:52;11.30;99.90
52709;DHT22;38606;52.986;6.980;2023-10-31T08:55:18;11.30;99.90
52709;DHT22;38606;52.986;6.980;2023-10-31T08:57:44;11.60;99.90
52709;DHT22;38606;52.986;6.980;2023-10-31T09:00:10;11.30;99.90
52709;DHT22;38606;52.986;6.980;2023-10-31T09:02:36;11.60;99.90
52709;DHT22;38606;52.986;6.980;2023-10-31T09:05:02;11.50;99.90
52709;DHT22;38606;52.986;6.980;2023-10-31T09:07:27;11.50;99.90
52709;DHT22;38606;52.986;6.980;2023-10-31T09:09:53;11.50;99.90
52709;DHT22;38606;52.986;6.980;2023-10-31T09:12:19;11.70;99.90
52709;DHT22;38606;52.986;6.980;2023-10-31T09:14:45;11.80;99.90
52709;DHT22;38606;52.986;6.980;2023-10-31T09:17:11;11.50;99.90
52709;DHT22;38606;52.986;6.980;2023-10-31T09:19:37;11.60;99.90
52709;DHT22;38606;52.986;6.980;2023-10-31T09:22:03;11.80;99.90
52709;DHT22;38606;52.986;6.980;2023-10-31T09:24:29;11.70;99.90
52709;DHT22;38606;52.986;6.980;2023-10-31T09:26:55;11.80;99.90
52709;DHT22;38606;52.986;6.980;2023-10-31T09:29:20;11.60;99.90
52709;DHT22;38606;52.986;6.980;2023-10-31T09:31:46;11.80;99.90
52709;DHT22;38606;52.986;6.980;2023-10-31T09:34:13;11.70;99.90
52709;DHT22;38606;52.986;6.980;2023-10-31T09:36:39;11.70;99.90
52709;DHT22;38606;52.986;6.980;2023-10-31T09:39:05;11.90;99.90
52709;DHT22;38606;52.986;6.980;2023-10-31T09:41:31;11.70;99.90
52709;DHT22;38606;52.986;6.980;2023-10-31T09:44:00;11.90;99.90
52709;DHT22;38606;52.986;6.980;2023-10-31T09:46:28;12.00;99.90
52709;DHT22;38606;52.986;6.980;2023-10-31T09:48:55;12.00;99.90
52709;DHT22;38606;52.986;6.980;2023-10-31T09:51:21;12.10;99.90
52709;DHT22;38606;52.986;6.980;2023-10-31T09:53:47;12.20;99.90
52709;DHT22;38606;52.986;6.980;2023-10-31T09:56:14;12.20;99.90
52709;DHT22;38606;52.986;6.980;2023-10-31T09:58:40;12.20;99.90
52709;DHT22;38606;52.986;6.980;2023-10-31T10:01:07;12.30;99.90
52709;DHT22;38606;52.986;6.980;2023-10-31T10:03:33;11.90;99.90
52709;DHT22;38606;52.986;6.980;2023-10-31T10:05:59;12.40;99.90
52709;DHT22;38606;52.986;6.980;2023-10-31T10:08:25;12.00;99.90
52709;DHT22;38606;52.986;6.980;2023-10-31T10:10:51;12.00;99.90
52709;DHT22;38606;52.986;6.980;2023-10-31T10:13:18;12.00;99.90
52709;DHT22;38606;52.986;6.980;2023-10-31T10:15:46;11.70;99.90
52709;DHT22;38606;52.986;6.980;2023-10-31T10:18:27;11.90;99.90
52709;DHT22;38606;52.986;6.980;2023-10-31T10:21:00;11.90;99.90
52709;DHT22;38606;52.986;6.980;2023-10-31T10:23:27;11.70;99.90
52709;DHT22;38606;52.986;6.980;2023-10-31T10:25:53;11.90;99.90
52709;DHT22;38606;52.986;6.980;2023-10-31T10:28:20;11.90;99.90
52709;DHT22;38606;52.986;6.980;2023-10-31T10:30:46;11.70;99.90
52709;DHT22;38606;52.986;6.980;2023-10-31T10:33:13;12.00;99.90
52709;DHT22;38606;52.986;6.980;2023-10-31T10:35:39;12.00;99.90
52709;DHT22;38606;52.986;6.980;2023-10-31T10:38:15;12.00;99.90
52709;DHT22;38606;52.986;6.980;2023-10-31T10:40:42;11.90;99.90
52709;DHT22;38606;52.986;6.980;2023-10-31T10:43:25;12.00;99.90
52709;DHT22;38606;52.986;6.980;2023-10-31T10:45:54;11.90;99.90
52709;DHT22;38606;52.986;6.980;2023-10-31T10:48:25;12.00;99.90
52709;DHT22;38606;52.986;6.980;2023-10-31T10:51:07;11.80;99.90
52709;DHT22;38606;52.986;6.980;2023-10-31T10:53:49;11.80;99.90
52709;DHT22;38606;52.986;6.980;2023-10-31T10:56:26;12.10;99.90
52709;DHT22;38606;52.986;6.980;2023-10-31T10:59:01;11.80;99.90
52709;DHT22;38606;52.986;6.980;2023-10-31T11:01:32;12.00;99.90
52709;DHT22;38606;52.986;6.980;2023-10-31T11:04:00;12.00;99.90
52709;DHT22;38606;52.986;6.980;2023-10-31T11:06:26;12.20;99.90
52709;DHT22;38606;52.986;6.980;2023-10-31T11:08:53;12.00;99.90
52709;DHT22;38606;52.986;6.980;2023-10-31T11:11:21;12.00;99.90
52709;DHT22;38606;52.986;6.980;2023-10-31T11:13:50;12.30;99.90
52709;DHT22;38606;52.986;6.980;2023-10-31T11:16:51;12.30;99.90
52709;DHT22;38606;52.986;6.980;2023-10-31T11:19:17;12.20;99.90
52709;DHT22;38606;52.986;6.980;2023-10-31T11:22:00;12.50;99.90
52709;DHT22;38606;52.986;6.980;2023-10-31T11:24:32;12.50;99.90
52709;DHT22;38606;52.986;6.980;2023-10-31T11:27:02;12.40;99.90
52709;DHT22;38606;52.986;6.980;2023-10-31T11:29:30;12.10;99.90
52709;DHT22;38606;52.986;6.980;2023-10-31T11:31:56;12.50;99.90
52709;DHT22;38606;52.986;6.980;2023-10-31T11:34:25;12.50;99.90
52709;DHT22;38606;52.986;6.980;2023-10-31T11:36:51;12.30;99.90
52709;DHT22;38606;52.986;6.980;2023-10-31T11:39:22;12.20;99.90
52709;DHT22;38606;52.986;6.980;2023-10-31T11:41:55;12.10;99.90
52709;DHT22;38606;52.986;6.980;2023-10-31T11:44:27;12.30;99.90
52709;DHT22;38606;52.986;6.980;2023-10-31T11:46:53;12.20;99.90
52709;DHT22;38606;52.986;6.980;2023-10-31T11:49:47;12.30;99.90
52709;DHT22;38606;52.986;6.980;2023-10-31T11:52:16;12.60;99.90
52709;DHT22;38606;52.986;6.980;2023-10-31T11:54:43;12.20;99.90
52709;DHT22;38606;52.986;6.980;2023-10-31T11:57:09;12.20;99.90
52709;DHT22;38606;52.986;6.980;2023-10-31T11:59:39;12.50;99.90
52709;DHT22;38606;52.986;6.980;2023-10-31T12:02:17;12.40;99.90
52709;DHT22;38606;52.986;6.980;2023-10-31T12:04:44;12.50;99.90
52709;DHT22;38606;52.986;6.980;2023-10-31T12:07:10;12.40;99.90
52709;DHT22;38606;52.986;6.980;2023-10-31T12:09:48;12.40;99.90
52709;DHT22;38606;52.986;6.980;2023-10-31T12:12:14;12.40;99.90
52709;DHT22;38606;52.986;6.980;2023-10-31T12:14:41;12.20;99.90
52709;DHT22;38606;52.986;6.980;2023-10-31T12:17:07;12.20;99.90
52709;DHT22;38606;52.986;6.980;2023-10-31T12:19:35;12.20;99.90
52709;DHT22;38606;52.986;6.980;2023-10-31T12:22:00;12.50;99.90
52709;DHT22;38606;52.986;6.980;2023-10-31T12:24:28;12.30;99.90
52709;DHT22;38606;52.986;6.980;2023-10-31T12:26:54;12.40;99.90
52709;DHT22;38606;52.986;6.980;2023-10-31T12:29:20;12.40;99.90
52709;DHT22;38606;52.986;6.980;2023-10-31T12:31:51;12.40;99.90
52709;DHT22;38606;52.986;6.980;2023-10-31T12:34:23;12.50;99.90
52709;DHT22;38606;52.986;6.980;2023-10-31T12:36:51;12.60;99.90
52709;DHT22;38606;52.986;6.980;2023-10-31T12:39:21;12.40;99.90
52709;DHT22;38606;52.986;6.980;2023-10-31T12:41:48;12.50;99.90
52709;DHT22;38606;52.986;6.980;2023-10-31T12:44:22;12.60;99.90
52709;DHT22;38606;52.986;6.980;2023-10-31T12:46:48;12.50;99.90
52709;DHT22;38606;52.986;6.980;2023-10-31T12:49:18;12.20;99.90
52709;DHT22;38606;52.986;6.980;2023-10-31T12:51:58;12.60;99.90
52709;DHT22;38606;52.986;6.980;2023-10-31T12:54:32;12.50;99.90
52709;DHT22;38606;52.986;6.980;2023-10-31T12:56:58;12.40;99.90
52709;DHT22;38606;52.986;6.980;2023-10-31T12:59:24;12.50;99.90
52709;DHT22;38606;52.986;6.980;2023-10-31T13:01:50;12.30;99.90
52709;DHT22;38606;52.986;6.980;2023-10-31T13:04:25;12.60;99.90
52709;DHT22;38606;52.986;6.980;2023-10-31T13:07:26;12.40;99.90
52709;DHT22;38606;52.986;6.980;2023-10-31T13:09:52;12.50;99.90
52709;DHT22;38606;52.986;6.980;2023-10-31T13:12:17;12.60;99.90
52709;DHT22;38606;52.986;6.980;2023-10-31T13:14:43;12.70;99.90
52709;DHT22;38606;52.986;6.980;2023-10-31T13:17:09;12.50;99.90
52709;DHT22;38606;52.986;6.980;2023-10-31T13:19:34;12.70;99.90
52709;DHT22;38606;52.986;6.980;2023-10-31T13:22:00;12.60;99.90
52709;DHT22;38606;52.986;6.980;2023-10-31T13:24:26;12.40;99.90
52709;DHT22;38606;52.986;6.980;2023-10-31T13:26:52;12.40;99.90
52709;DHT22;38606;52.986;6.980;2023-10-31T13:29:18;12.50;99.90
52709;DHT22;38606;52.986;6.980;2023-10-31T13:31:44;12.20;99.90
52709;DHT22;38606;52.986;6.980;2023-10-31T13:34:10;12.30;99.90
52709;DHT22;38606;52.986;6.980;2023-10-31T13:36:36;12.60;99.90
52709;DHT22;38606;52.986;6.980;2023-10-31T13:39:02;12.30;99.90
52709;DHT22;38606;52.986;6.980;2023-10-31T13:41:28;12.60;99.90
52709;DHT22;38606;52.986;6.980;2023-10-31T13:43:54;12.30;99.90
52709;DHT22;38606;52.986;6.980;2023-10-31T13:46:19;12.50;99.90
52709;DHT22;38606;52.986;6.980;2023-10-31T13:48:45;12.40;99.90
52709;DHT22;38606;52.986;6.980;2023-10-31T13:51:12;12.50;99.90
52709;DHT22;38606;52.986;6.980;2023-10-31T13:53:38;12.50;99.90
52709;DHT22;38606;52.986;6.980;2023-10-31T13:56:04;12.50;99.90
52709;DHT22;38606;52.986;6.980;2023-10-31T13:58:30;12.40;99.90
52709;DHT22;38606;52.986;6.980;2023-10-31T14:00:55;12.50;99.90
52709;DHT22;38606;52.986;6.980;2023-10-31T14:03:21;12.30;99.90
52709;DHT22;38606;52.986;6.980;2023-10-31T14:05:47;11.20;99.90
52709;DHT22;38606;52.986;6.980;2023-10-31T14:08:13;12.40;99.90
52709;DHT22;38606;52.986;6.980;2023-10-31T14:10:39;12.30;99.90
52709;DHT22;38606;52.986;6.980;2023-10-31T14:13:05;12.20;99.90
52709;DHT22;38606;52.986;6.980;2023-10-31T14:15:31;12.50;99.90
52709;DHT22;38606;52.986;6.980;2023-10-31T14:17:58;11.40;99.90
52709;DHT22;38606;52.986;6.980;2023-10-31T14:20:24;12.30;99.90
52709;DHT22;38606;52.986;6.980;2023-10-31T14:22:50;12.30;99.90
52709;DHT22;38606;52.986;6.980;2023-10-31T14:25:17;12.00;99.90
52709;DHT22;38606;52.986;6.980;2023-10-31T14:27:43;11.90;99.90
52709;DHT22;38606;52.986;6.980;2023-10-31T14:30:11;11.80;99.90
52709;DHT22;38606;52.986;6.980;2023-10-31T14:32:38;11.70;99.90
52709;DHT22;38606;52.986;6.980;2023-10-31T14:35:05;11.80;99.90
52709;DHT22;38606;52.986;6.980;2023-10-31T14:37:30;12.00;99.90
52709;DHT22;38606;52.986;6.980;2023-10-31T14:39:56;11.80;99.90
52709;DHT22;38606;52.986;6.980;2023-10-31T14:42:22;11.80;99.90
52709;DHT22;38606;52.986;6.980;2023-10-31T14:44:48;11.70;99.90
52709;DHT22;38606;52.986;6.980;2023-10-31T14:47:13;11.60;99.90
52709;DHT22;38606;52.986;6.980;2023-10-31T14:49:39;11.70;99.90
52709;DHT22;38606;52.986;6.980;2023-10-31T14:52:05;11.80;99.90
52709;DHT22;38606;52.986;6.980;2023-10-31T14:54:34;11.40;99.90
52709;DHT22;38606;52.986;6.980;2023-10-31T14:57:01;11.70;99.90
52709;DHT22;38606;52.986;6.980;2023-10-31T14:59:27;11.60;99.90
52709;DHT22;38606;52.986;6.980;2023-10-31T15:01:53;11.70;99.90
52709;DHT22;38606;52.986;6.980;2023-10-31T15:04:19;11.60;99.90
52709;DHT22;38606;52.986;6.980;2023-10-31T15:06:44;11.70;99.90
52709;DHT22;38606;52.986;6.980;2023-10-31T15:09:10;11.30;99.90
52709;DHT22;38606;52.986;6.980;2023-10-31T15:11:37;11.40;99.90
52709;DHT22;38606;52.986;6.980;2023-10-31T15:14:02;11.40;99.90
52709;DHT22;38606;52.986;6.980;2023-10-31T15:16:29;11.70;99.90
52709;DHT22;38606;52.986;6.980;2023-10-31T15:18:54;11.40;99.90
52709;DHT22;38606;52.986;6.980;2023-10-31T15:21:20;11.60;99.90
52709;DHT22;38606;52.986;6.980;2023-10-31T15:23:46;11.50;99.90
52709;DHT22;38606;52.986;6.980;2023-10-31T15:26:12;11.90;99.90
52709;DHT22;38606;52.986;6.980;2023-10-31T15:28:51;11.30;99.90